Time;durP1;ratioP1;P1;durP2;ratioP2;P2;SDS_P1;SDS_P2;PMS_P1;PMS_P2;Temp;Humidity;BMP_temperature;BMP_pressure;BME280_temperature;BME280_humidity;BME280_pressure;Samples;Min_cycle;Max_cycle;Signal;HPM_P1;HPM_P2
2022/03/27 00:01:34;;;;;;;7.35;2.63;;;;;;;11.47;70.18;101718.19;5056819;28;20248;-76
2022/03/27 00:04:00;;;;;;;8.02;2.88;;;;;;;11.32;71.35;101711.88;5056375;28;20399;-76
2022/03/27 00:06:26;;;;;;;5.13;2.13;;;;;;;11.24;71.46;101717.34;5056033;28;20112;-76
2022/03/27 00:08:51;;;;;;;5.63;2.47;;;;;;;11.33;70.92;101718.13;5056555;28;20120;-75
2022/03/27 00:11:26;;;;;;;5.23;1.90;;;;;;;11.15;71.79;101718.38;5056365;28;20056;-76
2022/03/27 00:14:05;;;;;;;5.97;2.30;;;;;;;11.11;72.20;101704.41;5056273;28;20271;-77
2022/03/27 00:16:31;;;;;;;6.90;2.25;;;;;;;11.02;72.56;101723.53;5055916;28;20490;-76
2022/03/27 00:18:57;;;;;;;5.40;2.38;;;;;;;10.96;73.21;101718.81;5056234;28;20033;-76
2022/03/27 00:21:23;;;;;;;5.20;1.90;;;;;;;10.95;73.24;101719.84;5056172;28;20037;-76
2022/03/27 00:23:50;;;;;;;6.25;3.00;;;;;;;10.77;74.85;101720.91;5056063;28;20039;-78
2022/03/27 00:26:16;;;;;;;6.82;2.20;;;;;;;10.71;74.66;101724.34;5055798;28;20118;-77
2022/03/27 00:28:42;;;;;;;7.82;2.53;;;;;;;10.60;76.53;101723.84;5038292;28;20037;-77
2022/03/27 00:31:10;;;;;;;5.50;2.95;;;;;;;10.53;76.44;101717.50;5055968;28;20116;-76
2022/03/27 00:33:37;;;;;;;6.93;2.60;;;;;;;10.48;76.83;101715.31;5055999;28;20032;-77
2022/03/27 00:36:04;;;;;;;6.28;2.50;;;;;;;10.39;77.57;101711.78;5055545;28;20513;-77
2022/03/27 00:38:30;;;;;;;5.78;2.20;;;;;;;10.34;78.00;101708.78;5055572;28;20036;-77
2022/03/27 00:40:56;;;;;;;6.40;2.58;;;;;;;10.29;78.66;101713.00;5055840;28;20109;-77
2022/03/27 00:43:22;;;;;;;;;;;;;;;10.27;78.96;101713.16;5056220;28;20037;-77
2022/03/27 00:45:48;;;;;;;7.20;2.95;;;;;;;10.25;78.53;101709.78;5055591;28;19908;-77
2022/03/27 00:48:14;;;;;;;6.20;2.70;;;;;;;10.25;78.87;101708.94;5055717;28;20036;-77
2022/03/27 00:50:41;;;;;;;7.70;2.42;;;;;;;10.19;79.15;101706.97;5055293;28;20040;-77
2022/03/27 00:53:06;;;;;;;;;;;;;;;10.18;79.47;101711.47;5055636;28;20075;-77
2022/03/27 00:55:32;;;;;;;8.73;3.00;;;;;;;10.21;79.16;101713.84;5055580;28;20347;-76
2022/03/27 00:57:58;;;;;;;7.45;2.88;;;;;;;10.19;79.33;101710.50;5053847;28;20032;-77
2022/03/27 01:00:38;;;;;;;5.25;2.35;;;;;;;10.09;79.45;101713.31;5055185;28;20433;-77
2022/03/27 01:03:17;;;;;;;7.55;2.90;;;;;;;10.04;79.54;101706.75;5055227;28;20036;-77
2022/03/27 01:05:43;;;;;;;5.50;2.63;;;;;;;10.07;79.92;101709.97;5036909;28;20080;-77
2022/03/27 01:08:11;;;;;;;8.00;2.65;;;;;;;10.00;80.41;101708.97;5054936;28;20025;-77
2022/03/27 01:10:38;;;;;;;6.05;2.58;;;;;;;9.96;80.11;101710.31;5054967;28;20472;-77
2022/03/27 01:13:21;;;;;;;;;;;;;;;9.92;80.31;101706.28;5056000;28;20032;-77
2022/03/27 01:15:53;;;;;;;8.63;2.90;;;;;;;9.88;80.79;101699.53;5055329;28;20286;-80
2022/03/27 01:18:20;;;;;;;10.48;3.65;;;;;;;9.83;81.11;101701.91;5055517;28;20036;-76
2022/03/27 01:20:46;;;;;;;7.40;3.17;;;;;;;9.83;81.12;101699.22;5054882;28;20033;-78
2022/03/27 01:23:12;;;;;;;6.55;2.97;;;;;;;9.75;81.38;101696.53;5056157;28;20032;-78
2022/03/27 01:25:40;;;;;;;8.63;3.13;;;;;;;9.76;81.39;101698.22;5056465;28;20044;-78
2022/03/27 01:28:08;;;;;;;6.57;2.97;;;;;;;9.76;81.46;101687.44;5059038;28;20024;-77
2022/03/27 01:30:34;;;;;;;8.60;3.50;;;;;;;9.68;81.75;101685.56;5058721;28;20021;-77
2022/03/27 01:32:59;;;;;;;11.52;3.60;;;;;;;9.66;81.91;101681.41;5055874;28;20499;-77
2022/03/27 01:35:25;;;;;;;11.02;3.70;;;;;;;9.61;82.03;101676.50;5054893;28;20040;-77
2022/03/27 01:37:50;;;;;;;5.65;2.80;;;;;;;9.57;81.96;101677.84;5055192;28;20044;-75
2022/03/27 01:40:17;;;;;;;10.73;3.60;;;;;;;9.56;82.21;101680.72;5054761;28;20083;-77
2022/03/27 01:42:43;;;;;;;7.07;2.92;;;;;;;9.54;82.11;101670.09;5054432;28;20111;-77
2022/03/27 01:45:10;;;;;;;8.68;3.28;;;;;;;9.48;82.51;101672.66;5054281;28;20108;-74
2022/03/27 01:47:38;;;;;;;6.88;2.67;;;;;;;9.46;82.33;101674.66;5054224;28;20033;-77
2022/03/27 01:50:05;;;;;;;8.93;3.63;;;;;;;9.46;82.92;101680.88;5054983;28;20060;-76
2022/03/27 01:52:32;;;;;;;7.85;3.90;;;;;;;9.38;82.50;101684.41;5054594;28;20036;-77
2022/03/27 01:54:58;;;;;;;9.38;4.07;;;;;;;9.37;83.20;101677.31;5036326;28;20098;-77
2022/03/27 01:57:23;;;;;;;7.45;3.63;;;;;;;9.33;82.78;101675.13;5054308;28;20032;-74
2022/03/27 01:59:48;;;;;;;10.33;3.83;;;;;;;9.27;83.29;101679.34;5054029;28;20033;-75
2022/03/27 02:02:14;;;;;;;9.53;4.17;;;;;;;9.31;82.62;101677.19;5054016;28;20112;-75
2022/03/27 02:04:39;;;;;;;7.83;3.60;;;;;;;9.19;83.18;101683.84;5054086;28;20369;-75
2022/03/27 02:07:05;;;;;;;8.23;4.57;;;;;;;9.22;83.59;101686.22;5054019;28;20295;-77
2022/03/27 02:09:30;;;;;;;11.40;3.90;;;;;;;9.13;83.74;101681.84;5053633;28;20256;-75
2022/03/27 02:11:56;;;;;;;7.82;3.70;;;;;;;9.14;83.85;101683.50;5054090;28;20024;-75
2022/03/27 02:14:21;;;;;;;9.53;3.90;;;;;;;9.08;83.92;101685.03;5054014;28;20071;-76
2022/03/27 02:16:46;;;;;;;10.33;4.60;;;;;;;9.09;83.76;101686.72;5053795;28;20760;-75
2022/03/27 02:19:12;;;;;;;8.87;4.10;;;;;;;9.05;83.68;101686.19;5053649;28;20090;-76
2022/03/27 02:21:39;;;;;;;10.50;4.40;;;;;;;9.05;84.25;101688.03;5053675;28;20096;-76
2022/03/27 02:24:05;;;;;;;11.25;4.55;;;;;;;9.04;84.17;101687.19;5053691;28;20066;-76
2022/03/27 02:26:31;;;;;;;8.90;4.35;;;;;;;9.09;84.07;101684.00;5053481;28;20025;-76
2022/03/27 02:28:56;;;;;;;;;;;;;;;9.05;84.38;101688.03;5054511;28;20048;-76
2022/03/27 02:31:22;;;;;;;10.43;4.53;;;;;;;9.10;83.89;101690.25;5053863;28;19912;-75
2022/03/27 02:33:48;;;;;;;8.40;4.07;;;;;;;9.31;83.60;101682.56;5036536;28;20044;-75
2022/03/27 02:36:14;;;;;;;10.25;4.65;;;;;;;9.32;83.15;101685.03;5056900;28;20340;-75
2022/03/27 02:38:40;;;;;;;11.75;4.93;;;;;;;9.14;83.80;101688.88;5053875;28;20538;-75
2022/03/27 02:41:06;;;;;;;8.88;4.70;;;;;;;9.13;83.28;101685.38;5053627;28;20045;-75
2022/03/27 02:43:32;;;;;;;13.02;5.00;;;;;;;9.05;84.19;101683.50;5053618;28;20035;-76
2022/03/27 02:45:58;;;;;;;9.23;4.93;;;;;;;8.88;84.88;101679.09;5053307;28;20031;-76
2022/03/27 02:48:23;;;;;;;11.10;4.72;;;;;;;8.90;84.43;101684.28;5053172;28;20032;-76
2022/03/27 02:50:49;;;;;;;9.90;4.43;;;;;;;8.87;84.95;101685.47;5035796;28;20386;-77
2022/03/27 02:53:14;;;;;;;10.00;5.17;;;;;;;8.85;84.96;101686.63;5053186;28;20262;-76
2022/03/27 02:55:40;;;;;;;9.90;4.45;;;;;;;8.77;85.33;101683.91;5053290;28;20079;-75
2022/03/27 02:58:05;;;;;;;11.27;5.10;;;;;;;8.75;85.50;101681.41;5053334;28;20090;-76
2022/03/27 03:00:31;;;;;;;10.95;4.65;;;;;;;8.79;85.39;101679.19;5053417;28;20079;-75
2022/03/27 03:02:57;;;;;;;12.38;6.03;;;;;;;8.84;84.91;101685.78;5053487;28;20423;-76
2022/03/27 03:05:22;;;;;;;11.40;4.43;;;;;;;8.77;85.07;101684.75;5053448;28;20079;-76
2022/03/27 03:07:49;;;;;;;12.05;4.88;;;;;;;8.73;85.52;101678.03;5053239;28;20110;-76
2022/03/27 03:10:14;;;;;;;12.88;5.05;;;;;;;8.68;85.57;101678.50;5053030;28;20087;-77
2022/03/27 03:12:40;;;;;;;11.17;5.60;;;;;;;8.74;85.63;101678.88;5053300;28;20029;-76
2022/03/27 03:15:07;;;;;;;11.05;5.55;;;;;;;8.64;85.98;101678.97;5053258;28;20662;-75
2022/03/27 03:17:32;;;;;;;10.30;5.25;;;;;;;8.73;85.68;101674.50;5053320;28;20069;-75
2022/03/27 03:19:58;;;;;;;11.70;5.57;;;;;;;8.66;85.91;101677.81;5035216;28;20072;-76
2022/03/27 03:22:24;;;;;;;13.10;5.72;;;;;;;8.69;85.83;101679.34;5056702;28;20033;-75
2022/03/27 03:24:50;;;;;;;13.85;5.95;;;;;;;8.57;86.21;101677.97;5057277;28;20463;-75
2022/03/27 03:27:16;;;;;;;13.23;5.80;;;;;;;8.57;86.36;101684.19;5057116;28;20025;-75
2022/03/27 03:29:41;;;;;;;12.02;5.75;;;;;;;8.60;86.48;101675.78;5057009;28;20039;-76
2022/03/27 03:32:07;;;;;;;14.37;6.67;;;;;;;8.54;86.49;101676.44;5056958;28;20041;-75
2022/03/27 03:34:32;;;;;;;12.90;6.53;;;;;;;8.51;86.93;101679.44;5057193;28;20036;-75
2022/03/27 03:36:58;;;;;;;14.33;7.10;;;;;;;8.35;87.73;101677.50;5039199;28;20037;-75
2022/03/27 03:39:23;;;;;;;15.15;6.95;;;;;;;8.25;88.21;101686.63;5039300;28;20017;-75
2022/03/27 03:41:49;;;;;;;15.77;7.47;;;;;;;8.14;89.00;101682.38;5056824;28;20399;-76
2022/03/27 03:44:14;;;;;;;16.70;7.17;;;;;;;8.12;88.90;101678.16;5056538;28;20103;-75
2022/03/27 03:46:39;;;;;;;15.65;7.43;;;;;;;8.09;89.29;101679.31;5056601;28;20287;-75
2022/03/27 03:49:06;;;;;;;18.10;7.63;;;;;;;8.13;89.30;101680.69;5057153;28;20041;-75
2022/03/27 03:51:34;;;;;;;23.15;8.95;;;;;;;8.07;89.42;101683.16;5056541;28;20335;-75
2022/03/27 03:53:59;;;;;;;20.90;8.10;;;;;;;8.13;89.31;101687.91;5056439;28;20033;-75
2022/03/27 03:56:25;;;;;;;17.23;7.97;;;;;;;8.17;89.08;101681.22;5056396;28;20397;-75
2022/03/27 03:58:50;;;;;;;17.17;7.83;;;;;;;8.17;89.33;101681.22;5056166;28;20041;-75
2022/03/27 04:01:15;;;;;;;21.87;8.10;;;;;;;8.13;89.11;101678.00;5056461;28;20029;-75
2022/03/27 04:03:41;;;;;;;19.67;8.97;;;;;;;8.25;89.05;101684.78;5056307;28;20057;-75
2022/03/27 04:06:07;;;;;;;24.00;9.23;;;;;;;8.27;88.96;101682.78;5038376;28;20027;-75
2022/03/27 04:08:33;;;;;;;26.48;9.77;;;;;;;8.34;88.57;101683.88;5056060;28;20029;-75
2022/03/27 04:10:58;;;;;;;21.25;9.48;;;;;;;8.27;88.50;101673.91;5056627;28;20055;-76
2022/03/27 04:13:23;;;;;;;22.10;9.67;;;;;;;8.18;88.88;101672.19;5038922;28;20052;-75
2022/03/27 04:15:49;;;;;;;19.60;8.90;;;;;;;8.20;88.95;101681.75;5056254;28;20031;-75
2022/03/27 04:18:14;;;;;;;20.67;8.63;;;;;;;8.25;89.23;101678.56;5056595;28;20603;-74
2022/03/27 04:20:41;;;;;;;27.33;9.43;;;;;;;8.17;89.39;101675.88;5056275;28;20025;-75
2022/03/27 04:23:06;;;;;;;20.77;9.52;;;;;;;8.12;89.79;101678.16;5056768;28;20260;-75
2022/03/27 04:25:31;;;;;;;23.70;9.07;;;;;;;8.21;89.53;101686.13;5055811;28;20032;-75
2022/03/27 04:27:57;;;;;;;19.23;9.23;;;;;;;8.17;89.52;101678.56;5055633;28;20021;-76
2022/03/27 04:30:22;;;;;;;19.60;9.60;;;;;;;8.17;89.51;101682.06;5055968;28;20041;-75
2022/03/27 04:32:50;;;;;;;21.83;8.73;;;;;;;8.12;89.80;101673.66;5055308;28;20033;-74
2022/03/27 04:35:16;;;;;;;20.15;9.30;;;;;;;8.12;90.03;101680.84;5055612;28;20378;-75
2022/03/27 04:37:43;;;;;;;26.20;9.18;;;;;;;8.19;90.16;101674.72;5055608;28;20111;-75
2022/03/27 04:40:10;;;;;;;24.42;9.68;;;;;;;8.21;90.06;101683.44;5055848;28;20383;-74
2022/03/27 04:42:36;;;;;;;23.45;10.13;;;;;;;8.29;89.39;101685.31;5055570;28;20021;-75
2022/03/27 04:45:02;;;;;;;26.17;9.80;;;;;;;8.40;89.34;101686.94;5056152;28;20052;-75
2022/03/27 04:47:28;;;;;;;;;;;;;;;8.38;89.36;101688.94;5055948;28;20614;-75
2022/03/27 04:49:53;;;;;;;23.83;9.60;;;;;;;8.25;89.60;101694.69;5037781;28;19920;-75
2022/03/27 04:52:18;;;;;;;28.20;10.47;;;;;;;8.32;89.73;101688.56;5055274;28;20025;-75
2022/03/27 04:54:44;;;;;;;24.13;10.65;;;;;;;8.41;89.31;101694.84;5055381;28;20033;-76
2022/03/27 04:57:09;;;;;;;24.33;9.53;;;;;;;8.31;89.50;101689.53;5055733;28;20544;-75
2022/03/27 04:59:35;;;;;;;25.40;9.98;;;;;;;8.37;89.59;101698.84;5055390;28;20112;-75
2022/03/27 05:02:00;;;;;;;23.30;10.25;;;;;;;8.19;89.37;101698.88;5055357;28;20051;-75
2022/03/27 05:04:26;;;;;;;26.50;10.45;;;;;;;8.25;89.72;101695.53;5055020;28;20092;-75
2022/03/27 05:06:51;;;;;;;25.83;9.25;;;;;;;8.05;90.57;101695.94;5054914;28;20498;-76
2022/03/27 05:09:18;;;;;;;24.33;8.93;;;;;;;8.04;90.90;101704.97;5055035;28;20032;-75
2022/03/27 05:11:44;;;;;;;22.88;9.80;;;;;;;8.16;90.47;101706.41;5055302;28;20041;-76
2022/03/27 05:14:09;;;;;;;20.88;9.88;;;;;;;8.09;91.14;101700.81;5054946;28;20029;-76
2022/03/27 05:16:35;;;;;;;25.60;9.87;;;;;;;8.13;90.72;101704.03;5054952;28;20044;-75
2022/03/27 05:19:00;;;;;;;25.47;10.63;;;;;;;8.11;90.66;101703.34;5054792;28;20029;-75
2022/03/27 05:21:26;;;;;;;20.13;8.93;;;;;;;8.22;90.47;101700.41;5055114;28;20379;-75
2022/03/27 05:23:51;;;;;;;22.65;8.63;;;;;;;8.24;90.47;101709.16;5054801;28;20721;-76
2022/03/27 05:26:17;;;;;;;24.55;10.40;;;;;;;8.24;90.31;101707.28;5054583;28;20036;-76
2022/03/27 05:28:43;;;;;;;22.45;8.65;;;;;;;8.38;90.58;101711.28;5054891;28;20037;-76
2022/03/27 05:31:09;;;;;;;22.13;9.35;;;;;;;8.42;89.99;101711.81;5054840;28;20485;-77
2022/03/27 05:33:38;;;;;;;22.10;10.40;;;;;;;8.46;89.30;101719.34;5036945;28;20102;-75
2022/03/27 05:36:05;;;;;;;23.95;10.35;;;;;;;8.49;89.22;101704.78;5054650;28;20033;-76
2022/03/27 05:38:30;;;;;;;22.38;10.30;;;;;;;8.42;89.50;101709.94;5054708;28;20126;-76
2022/03/27 05:40:56;;;;;;;21.93;10.23;;;;;;;8.32;90.11;101709.22;5054779;28;20082;-77
2022/03/27 05:43:21;;;;;;;23.77;10.37;;;;;;;8.38;89.63;101705.91;5053938;28;20041;-76
2022/03/27 05:45:47;;;;;;;20.87;9.33;;;;;;;8.10;91.18;101709.69;5054395;28;20028;-76
2022/03/27 05:48:14;;;;;;;21.67;8.95;;;;;;;8.18;91.14;101709.78;5036325;28;20497;-76
2022/03/27 05:50:39;;;;;;;21.63;9.15;;;;;;;8.13;91.10;101717.44;5054453;28;20037;-76
2022/03/27 05:53:05;;;;;;;23.77;10.38;;;;;;;8.19;90.56;101719.50;5036594;28;20352;-76
2022/03/27 05:55:30;;;;;;;23.67;9.60;;;;;;;8.06;91.70;101716.41;5054418;28;20055;-76
2022/03/27 05:57:55;;;;;;;22.87;9.77;;;;;;;8.07;91.08;101715.38;5054497;28;20523;-76
2022/03/27 06:00:21;;;;;;;24.83;9.87;;;;;;;7.98;91.89;101709.97;5054437;28;20028;-75
2022/03/27 06:02:48;;;;;;;21.25;9.15;;;;;;;8.18;91.53;101718.66;5054274;28;20036;-75
2022/03/27 06:05:14;;;;;;;24.35;9.38;;;;;;;8.23;91.29;101718.19;5054211;28;20075;-75
2022/03/27 06:08:04;;;;;;;20.58;9.25;;;;;;;8.35;89.87;101719.66;5054015;28;20535;-75
2022/03/27 06:10:32;;;;;;;23.67;9.65;;;;;;;8.34;89.85;101732.22;5053932;28;20061;-75
2022/03/27 06:12:59;;;;;;;24.20;10.50;;;;;;;8.19;90.50;101731.09;5054380;28;20083;-75
2022/03/27 06:15:25;;;;;;;21.77;9.85;;;;;;;8.12;91.30;101732.72;5054087;28;20082;-78
2022/03/27 06:17:53;;;;;;;23.05;9.25;;;;;;;7.99;91.67;101738.50;5054197;28;20115;-76
2022/03/27 06:20:21;;;;;;;21.80;8.93;;;;;;;8.02;91.73;101738.19;5053711;28;20047;-76
2022/03/27 06:22:47;;;;;;;26.70;9.30;;;;;;;8.01;91.29;101731.13;5054248;28;20035;-76
2022/03/27 06:25:18;;;;;;;25.58;9.57;;;;;;;7.99;91.24;101729.59;5054258;28;20498;-79
2022/03/27 06:27:45;;;;;;;23.27;8.93;;;;;;;7.77;92.07;101740.81;5036543;28;20124;-77
2022/03/27 06:30:16;;;;;;;26.88;9.48;;;;;;;7.75;92.32;101734.75;5053952;28;20024;-76
2022/03/27 06:32:42;;;;;;;26.80;10.40;;;;;;;7.85;92.05;101740.91;5053992;28;20021;-77
2022/03/27 06:35:10;;;;;;;31.80;10.07;;;;;;;7.90;92.02;101739.41;5053427;28;20108;-77
2022/03/27 06:37:36;;;;;;;23.92;9.68;;;;;;;7.83;92.07;101732.16;5053894;28;20025;-76
2022/03/27 06:40:03;;;;;;;22.10;8.55;;;;;;;7.78;92.12;101745.19;5053867;28;20406;-78
2022/03/27 06:42:29;;;;;;;21.65;9.10;;;;;;;7.82;92.04;101746.56;5053736;28;20029;-76
2022/03/27 06:44:55;;;;;;;18.77;8.88;;;;;;;7.82;92.09;101752.78;5054051;28;20039;-77
2022/03/27 06:47:23;;;;;;;21.65;9.00;;;;;;;7.92;91.61;101750.00;5053727;28;20375;-76
2022/03/27 06:49:49;;;;;;;21.95;7.85;;;;;;;7.92;91.24;101745.47;5053895;28;20067;-76
2022/03/27 06:52:16;;;;;;;24.35;10.43;;;;;;;7.77;91.15;101746.19;5053580;28;20079;-76
2022/03/27 06:54:43;;;;;;;24.27;9.40;;;;;;;7.76;91.58;101748.03;5053160;28;20123;-76
2022/03/27 06:57:08;;;;;;;23.55;9.20;;;;;;;7.70;91.68;101750.50;5053661;28;20025;-77
2022/03/27 07:05:13;;;;;;;26.40;9.65;;;;;;;7.78;90.71;101753.22;5053532;28;20083;-76
2022/03/27 07:07:38;;;;;;;21.48;8.88;;;;;;;7.83;91.15;101749.09;5052997;28;20060;-78
2022/03/27 07:10:04;;;;;;;24.05;8.95;;;;;;;7.92;90.25;101748.16;5053633;28;20037;-77
2022/03/27 07:12:30;;;;;;;21.50;8.48;;;;;;;7.93;89.87;101749.00;5052771;28;20025;-76
2022/03/27 07:14:55;;;;;;;25.23;10.30;;;;;;;8.11;89.34;101747.13;5053201;28;20451;-77
2022/03/27 07:17:21;;;;;;;25.77;10.65;;;;;;;8.04;88.67;101750.63;5052781;28;20112;-77
2022/03/27 07:19:47;;;;;;;24.98;9.73;;;;;;;7.82;89.78;101751.94;5053328;28;20400;-76
2022/03/27 07:22:14;;;;;;;23.58;8.82;;;;;;;7.99;89.51;101757.28;5053431;28;20025;-76
2022/03/27 07:24:41;;;;;;;23.38;9.00;;;;;;;7.95;89.17;101758.59;5053655;28;20025;-77
2022/03/27 07:27:08;;;;;;;24.10;9.10;;;;;;;8.04;88.85;101755.97;5053559;28;20028;-76
2022/03/27 07:29:35;;;;;;;21.10;9.55;;;;;;;7.99;88.57;101749.22;5055025;28;20085;-76
2022/03/27 07:32:01;;;;;;;25.45;8.98;;;;;;;8.09;88.19;101756.34;5057066;28;20491;-78
2022/03/27 07:34:26;;;;;;;22.23;8.95;;;;;;;8.21;87.76;101753.25;5059738;28;20060;-76
2022/03/27 07:36:51;;;;;;;20.50;8.23;;;;;;;8.22;87.43;101749.56;5058359;28;20037;-76
2022/03/27 07:39:16;;;;;;;17.27;8.43;;;;;;;8.29;86.46;101745.25;5039675;28;20406;-77
2022/03/27 07:41:42;;;;;;;20.70;8.70;;;;;;;8.09;87.30;101753.66;5053101;28;20044;-77
2022/03/27 07:44:08;;;;;;;19.13;9.00;;;;;;;8.21;86.85;101750.56;5052776;28;20029;-76
2022/03/27 07:46:33;;;;;;;19.83;8.45;;;;;;;8.33;86.73;101745.81;5052804;28;20435;-76
2022/03/27 07:48:59;;;;;;;25.00;9.07;;;;;;;8.18;86.56;101750.88;5034849;28;20444;-76
2022/03/27 07:51:24;;;;;;;22.13;9.05;;;;;;;8.30;86.46;101744.25;5054937;28;20025;-78
2022/03/27 07:53:50;;;;;;;17.90;7.97;;;;;;;8.22;86.65;101751.41;5058065;28;20145;-78
2022/03/27 07:56:15;;;;;;;21.20;8.27;;;;;;;8.57;85.67;101753.19;5053937;28;20056;-78
2022/03/27 07:58:40;;;;;;;18.10;7.53;;;;;;;8.46;85.40;101751.59;5053032;28;20243;-79
2022/03/27 08:01:06;;;;;;;22.13;9.13;;;;;;;8.62;84.83;101751.69;5052537;28;20270;-78
2022/03/27 08:03:33;;;;;;;22.00;8.98;;;;;;;8.60;84.52;101751.00;5052218;28;20356;-77
2022/03/27 08:06:03;;;;;;;18.70;8.05;;;;;;;8.64;84.43;101749.69;5052886;28;20078;-77
2022/03/27 08:08:28;;;;;;;21.13;9.07;;;;;;;8.86;84.14;101752.81;5055793;28;20039;-80
2022/03/27 08:10:57;;;;;;;22.25;9.25;;;;;;;8.72;83.86;101751.59;5038567;28;20033;-77
2022/03/27 08:13:22;;;;;;;20.60;8.80;;;;;;;8.85;83.63;101746.59;5056586;28;20048;-79
2022/03/27 08:15:48;;;;;;;21.55;8.05;;;;;;;8.89;83.57;101747.13;5039466;28;20037;-78
2022/03/27 08:18:16;;;;;;;17.97;8.73;;;;;;;8.82;83.67;101751.44;5056275;28;20033;-78
2022/03/27 08:20:41;;;;;;;19.17;8.43;;;;;;;8.77;83.64;101748.41;5056555;28;20033;-78
2022/03/27 08:23:07;;;;;;;21.43;8.60;;;;;;;8.90;82.93;101751.50;5038923;28;20029;-77
2022/03/27 08:28:20;;;;;;;19.10;8.85;;;;;;;8.77;83.77;101754.63;5056469;28;20103;-78
2022/03/27 08:30:46;;;;;;;22.60;9.10;;;;;;;8.85;83.34;101751.97;5056570;28;20112;-78
2022/03/27 08:33:12;;;;;;;22.48;8.63;;;;;;;8.98;82.62;101756.88;5056584;28;20046;-78
2022/03/27 08:35:42;;;;;;;19.10;8.63;;;;;;;8.81;82.48;101760.50;5057091;28;20116;-78
2022/03/27 08:38:17;;;;;;;21.27;8.68;;;;;;;9.02;81.85;101753.72;5040150;28;20028;-79
2022/03/27 08:40:45;;;;;;;17.80;8.25;;;;;;;9.10;81.62;101755.63;5040433;28;20024;-80
2022/03/27 08:43:16;;;;;;;18.02;8.15;;;;;;;9.11;81.42;101757.28;5060069;28;20021;-80
2022/03/27 08:45:43;;;;;;;17.55;8.48;;;;;;;9.24;80.93;101760.34;5057787;28;20025;-79
2022/03/27 08:48:09;;;;;;;16.73;7.25;;;;;;;9.05;81.24;101755.25;5058189;28;20147;-77
2022/03/27 08:50:42;;;;;;;18.50;8.02;;;;;;;9.34;80.51;101752.13;5057165;28;20033;-78
2022/03/27 08:53:11;;;;;;;17.48;7.90;;;;;;;9.17;81.15;101758.47;5039659;28;20471;-77
2022/03/27 08:55:54;;;;;;;18.52;8.60;;;;;;;9.15;81.23;101757.78;5057432;28;20029;-78
2022/03/27 08:58:25;;;;;;;21.90;7.65;;;;;;;9.27;80.52;101759.19;5057326;28;20040;-77
2022/03/27 09:00:51;;;;;;;17.52;8.52;;;;;;;9.43;80.33;101750.31;5068357;28;20056;-77
2022/03/27 09:03:19;;;;;;;18.13;8.13;;;;;;;9.37;80.24;101759.88;5057195;28;20051;-77
2022/03/27 09:05:45;;;;;;;17.77;7.65;;;;;;;9.63;79.53;101757.09;5056213;28;20059;-77
2022/03/27 09:08:12;;;;;;;17.35;7.03;;;;;;;9.64;79.86;101756.91;5055750;28;20029;-78
2022/03/27 09:10:39;;;;;;;16.08;7.07;;;;;;;9.73;78.67;101755.06;5055887;28;20033;-77
2022/03/27 09:13:04;;;;;;;18.75;7.55;;;;;;;9.69;79.00;101754.53;5055986;28;20475;-78
2022/03/27 09:15:30;;;;;;;17.27;7.55;;;;;;;9.56;79.30;101756.91;5056421;28;20029;-79
2022/03/27 09:18:01;;;;;;;20.55;7.95;;;;;;;9.61;79.38;101759.09;5055714;28;20494;-80
2022/03/27 09:20:40;;;;;;;21.98;8.00;;;;;;;9.80;79.01;101758.78;5055327;28;20029;-77
2022/03/27 09:23:14;;;;;;;21.40;8.32;;;;;;;9.89;77.63;101757.75;5055968;28;20036;-78
2022/03/27 09:25:44;;;;;;;19.13;8.00;;;;;;;9.98;78.07;101762.16;5056260;28;20455;-77
2022/03/27 09:28:10;;;;;;;15.85;7.93;;;;;;;9.74;78.58;101756.75;5055926;28;20112;-77
2022/03/27 09:30:36;;;;;;;27.67;9.13;;;;;;;9.76;78.33;101757.44;5056841;28;20025;-78
2022/03/27 09:33:02;;;;;;;;;;;;;;;9.92;77.99;101754.75;5057013;28;20032;-78
2022/03/27 09:35:28;;;;;;;19.17;7.07;;;;;;;10.12;76.84;101757.09;5056134;28;19909;-79
2022/03/27 09:37:53;;;;;;;18.85;8.35;;;;;;;9.89;78.02;101762.31;5056231;28;20040;-78
2022/03/27 09:40:19;;;;;;;20.10;8.27;;;;;;;9.89;77.21;101757.75;5055483;28;20040;-77
2022/03/27 09:42:45;;;;;;;17.60;7.72;;;;;;;10.25;77.48;101752.06;5055488;28;20120;-78
2022/03/27 09:45:19;;;;;;;15.60;6.45;;;;;;;10.02;77.77;101755.44;5055763;28;20103;-77
2022/03/27 09:47:50;;;;;;;20.20;7.90;;;;;;;10.05;76.94;101755.06;5055559;28;20039;-78
2022/03/27 09:50:30;;;;;;;15.23;6.93;;;;;;;10.02;77.20;101750.03;5055025;28;20032;-78
2022/03/27 09:53:31;;;;;;;19.35;7.68;;;;;;;10.20;76.50;101740.97;5056441;28;20357;-78
2022/03/27 09:55:56;;;;;;;16.92;7.50;;;;;;;10.35;75.58;101752.72;5059605;28;20364;-79
2022/03/27 09:58:41;;;;;;;15.07;6.63;;;;;;;10.69;75.26;101749.78;5055887;28;20040;-79
2022/03/27 10:01:13;;;;;;;17.17;8.00;;;;;;;10.82;74.23;101744.66;5037755;28;20468;-78
2022/03/27 10:03:57;;;;;;;22.88;8.32;;;;;;;10.85;73.94;101748.88;5055092;28;20028;-78
2022/03/27 10:06:35;;;;;;;17.35;7.88;;;;;;;10.59;74.85;101749.97;5055385;28;20036;-78
2022/03/27 10:09:02;;;;;;;21.70;7.60;;;;;;;10.57;75.55;101748.47;5054908;28;20025;-78
2022/03/27 10:11:28;;;;;;;20.88;7.82;;;;;;;10.52;75.01;101754.38;5054608;28;20119;-79
2022/03/27 10:13:54;;;;;;;22.80;8.05;;;;;;;10.47;75.77;101743.25;5054863;28;20029;-78
2022/03/27 10:16:24;;;;;;;22.85;8.45;;;;;;;10.59;75.67;101741.88;5055420;28;20025;-79
2022/03/27 10:18:58;;;;;;;22.45;8.25;;;;;;;10.68;74.57;101740.00;5054774;28;20790;-77
2022/03/27 10:21:26;;;;;;;20.58;7.18;;;;;;;10.71;75.17;101740.50;5056568;28;20039;-77
2022/03/27 10:24:13;;;;;;;20.92;7.68;;;;;;;10.83;74.56;101729.34;5038987;28;20021;-78
2022/03/27 10:26:40;;;;;;;22.35;7.57;;;;;;;10.77;75.15;101726.31;5058783;28;20029;-78
2022/03/27 10:29:07;;;;;;;23.70;7.75;;;;;;;10.87;73.81;101723.44;5057273;28;20041;-80
2022/03/27 10:31:32;;;;;;;21.80;8.60;;;;;;;11.09;73.17;101714.56;5040665;28;20099;-77
2022/03/27 10:34:00;;;;;;;22.08;7.30;;;;;;;11.04;73.59;101710.69;5057560;28;20033;-78
2022/03/27 10:36:51;;;;;;;20.27;8.30;;;;;;;11.40;72.20;101717.22;5054493;28;20029;-77
2022/03/27 10:39:53;;;;;;;26.88;10.02;;;;;;;11.63;71.58;101719.09;5054365;28;20029;-78
2022/03/27 10:42:34;;;;;;;20.98;7.53;;;;;;;11.65;70.75;101717.03;5000195;28;20505;-78
2022/03/27 10:45:09;;;;;;;23.10;8.77;;;;;;;11.96;69.69;101712.44;5054564;28;20043;-78
2022/03/27 10:47:35;;;;;;;22.08;6.95;;;;;;;11.97;69.47;101711.44;5054126;28;20085;-77
2022/03/27 10:50:00;;;;;;;18.57;7.23;;;;;;;11.81;70.25;101711.56;5055059;28;20483;-80
2022/03/27 10:52:26;;;;;;;20.60;8.37;;;;;;;11.93;69.97;101702.00;5054849;28;20032;-78
2022/03/27 10:54:58;;;;;;;19.83;7.07;;;;;;;12.26;68.86;101685.47;5055105;28;20041;-77
2022/03/27 10:57:39;;;;;;;19.42;7.13;;;;;;;12.37;67.96;101693.09;5054156;28;20064;-78
2022/03/27 11:00:07;;;;;;;20.73;7.38;;;;;;;12.49;67.28;101697.06;5054896;28;20147;-76
2022/03/27 11:02:53;;;;;;;17.58;8.07;;;;;;;12.28;68.63;101686.13;5054408;28;20037;-78
2022/03/27 11:05:37;;;;;;;23.70;7.57;;;;;;;12.41;66.78;101684.44;5054002;28;20048;-77
2022/03/27 11:08:18;;;;;;;15.00;6.22;;;;;;;12.44;67.10;101684.09;5055085;28;20033;-79
2022/03/27 11:10:51;;;;;;;17.20;8.13;;;;;;;12.76;66.14;101677.44;5059959;28;20088;-80
2022/03/27 11:13:43;;;;;;;22.38;7.50;;;;;;;12.95;64.92;101691.41;5064013;28;20033;-82
2022/03/27 11:16:13;;;;;;;14.48;5.90;;;;;;;12.83;65.30;101685.66;5062130;28;20041;-80
2022/03/27 11:18:47;;;;;;;13.52;6.03;;;;;;;12.88;64.31;101685.94;5066847;28;20124;-79
2022/03/27 11:21:14;;;;;;;14.57;5.82;;;;;;;12.96;64.65;101680.38;5064880;28;20029;-79
2022/03/27 11:23:43;;;;;;;15.57;5.82;;;;;;;12.82;64.43;101682.09;5062756;28;20089;-79
2022/03/27 11:26:20;;;;;;;14.70;6.07;;;;;;;13.04;63.88;101677.59;5052521;28;20124;-79
2022/03/27 11:28:51;;;;;;;17.75;6.07;;;;;;;13.15;63.37;101671.69;5062479;28;20055;-78
2022/03/27 11:31:22;;;;;;;13.25;6.10;;;;;;;13.33;62.80;101665.00;5045194;28;20025;-78
2022/03/27 11:34:14;;;;;;;14.88;6.00;;;;;;;13.64;62.51;101653.84;5044340;28;20029;-79
2022/03/27 11:36:47;;;;;;;15.82;6.57;;;;;;;13.64;61.48;101656.53;5040735;28;20101;-77
2022/03/27 11:39:31;;;;;;;14.65;6.63;;;;;;;13.77;60.73;101656.69;5059957;28;20029;-77